sensor_id;sensor_type;location;lat;lon;timestamp;temperature;humidity
36652;DHT22;53334;51.976;20.144;2023-03-25T00:02:20;26.00;54.90
36652;DHT22;53334;51.976;20.144;2023-03-25T00:04:54;26.00;54.90
36652;DHT22;53334;51.976;20.144;2023-03-25T00:07:28;26.00;54.90
36652;DHT22;53334;51.976;20.144;2023-03-25T00:10:04;26.00;54.90
36652;DHT22;53334;51.976;20.144;2023-03-25T00:12:38;26.00;54.90
36652;DHT22;53334;51.976;20.144;2023-03-25T00:15:14;26.00;54.90
36652;DHT22;53334;51.976;20.144;2023-03-25T00:17:48;26.00;55.00
36652;DHT22;53334;51.976;20.144;2023-03-25T00:20:22;26.00;55.00
36652;DHT22;53334;51.976;20.144;2023-03-25T00:22:55;26.00;55.00
36652;DHT22;53334;51.976;20.144;2023-03-25T00:25:30;26.00;55.00
36652;DHT22;53334;51.976;20.144;2023-03-25T00:28:03;26.00;55.00
36652;DHT22;53334;51.976;20.144;2023-03-25T00:30:37;26.00;55.10
36652;DHT22;53334;51.976;20.144;2023-03-25T00:33:11;26.00;55.00
36652;DHT22;53334;51.976;20.144;2023-03-25T00:35:44;26.00;55.00
36652;DHT22;53334;51.976;20.144;2023-03-25T00:38:20;26.00;55.00
36652;DHT22;53334;51.976;20.144;2023-03-25T00:40:56;26.00;55.00
36652;DHT22;53334;51.976;20.144;2023-03-25T00:43:30;26.00;54.90
36652;DHT22;53334;51.976;20.144;2023-03-25T00:46:03;26.00;54.90
36652;DHT22;53334;51.976;20.144;2023-03-25T00:48:37;26.00;54.90
36652;DHT22;53334;51.976;20.144;2023-03-25T00:51:10;26.00;54.60
36652;DHT22;53334;51.976;20.144;2023-03-25T00:53:44;26.00;54.70
36652;DHT22;53334;51.976;20.144;2023-03-25T00:56:19;26.00;54.70
36652;DHT22;53334;51.976;20.144;2023-03-25T00:58:53;26.00;54.80
36652;DHT22;53334;51.976;20.144;2023-03-25T01:01:27;26.00;54.80
36652;DHT22;53334;51.976;20.144;2023-03-25T01:04:02;26.00;54.80
36652;DHT22;53334;51.976;20.144;2023-03-25T01:06:36;26.00;54.80
36652;DHT22;53334;51.976;20.144;2023-03-25T01:09:13;26.00;54.80
36652;DHT22;53334;51.976;20.144;2023-03-25T01:11:48;26.00;54.90
36652;DHT22;53334;51.976;20.144;2023-03-25T01:14:22;26.00;54.80
36652;DHT22;53334;51.976;20.144;2023-03-25T01:16:58;26.00;54.70
36652;DHT22;53334;51.976;20.144;2023-03-25T01:19:34;26.00;54.80
36652;DHT22;53334;51.976;20.144;2023-03-25T01:22:07;26.00;54.80
36652;DHT22;53334;51.976;20.144;2023-03-25T01:24:41;26.00;54.80
36652;DHT22;53334;51.976;20.144;2023-03-25T01:27:15;26.00;54.70
36652;DHT22;53334;51.976;20.144;2023-03-25T01:29:49;26.00;54.70
36652;DHT22;53334;51.976;20.144;2023-03-25T01:32:22;26.00;54.70
36652;DHT22;53334;51.976;20.144;2023-03-25T01:34:56;26.00;54.60
36652;DHT22;53334;51.976;20.144;2023-03-25T01:37:29;26.00;54.60
36652;DHT22;53334;51.976;20.144;2023-03-25T01:40:06;26.00;54.70
36652;DHT22;53334;51.976;20.144;2023-03-25T01:42:42;26.00;54.60
36652;DHT22;53334;51.976;20.144;2023-03-25T01:45:22;26.00;54.50
36652;DHT22;53334;51.976;20.144;2023-03-25T01:48:03;26.00;54.60
36652;DHT22;53334;51.976;20.144;2023-03-25T01:50:41;26.00;54.70
36652;DHT22;53334;51.976;20.144;2023-03-25T01:53:16;26.00;54.70
36652;DHT22;53334;51.976;20.144;2023-03-25T01:55:50;26.00;54.70
36652;DHT22;53334;51.976;20.144;2023-03-25T01:58:28;26.00;54.60
36652;DHT22;53334;51.976;20.144;2023-03-25T02:01:03;26.00;54.70
36652;DHT22;53334;51.976;20.144;2023-03-25T02:03:38;26.00;54.70
36652;DHT22;53334;51.976;20.144;2023-03-25T02:06:19;26.00;54.70
36652;DHT22;53334;51.976;20.144;2023-03-25T02:08:57;26.00;54.70
36652;DHT22;53334;51.976;20.144;2023-03-25T02:11:31;26.00;54.70
36652;DHT22;53334;51.976;20.144;2023-03-25T02:14:07;26.00;54.70
36652;DHT22;53334;51.976;20.144;2023-03-25T02:16:47;26.00;54.60
36652;DHT22;53334;51.976;20.144;2023-03-25T02:19:38;26.00;54.60
36652;DHT22;53334;51.976;20.144;2023-03-25T02:22:35;26.00;54.60
36652;DHT22;53334;51.976;20.144;2023-03-25T02:25:47;26.00;54.50
36652;DHT22;53334;51.976;20.144;2023-03-25T02:28:28;26.00;54.20
36652;DHT22;53334;51.976;20.144;2023-03-25T02:31:26;26.00;54.60
36652;DHT22;53334;51.976;20.144;2023-03-25T02:34:39;26.00;54.20
36652;DHT22;53334;51.976;20.144;2023-03-25T02:37:32;26.00;54.20
36652;DHT22;53334;51.976;20.144;2023-03-25T02:40:13;26.00;54.20
36652;DHT22;53334;51.976;20.144;2023-03-25T02:42:53;26.00;54.50
36652;DHT22;53334;51.976;20.144;2023-03-25T02:45:30;26.00;54.40
36652;DHT22;53334;51.976;20.144;2023-03-25T02:48:06;26.00;54.40
36652;DHT22;53334;51.976;20.144;2023-03-25T02:50:47;26.00;54.30
36652;DHT22;53334;51.976;20.144;2023-03-25T02:53:26;26.00;54.30
36652;DHT22;53334;51.976;20.144;2023-03-25T02:56:07;26.00;54.40
36652;DHT22;53334;51.976;20.144;2023-03-25T02:58:44;26.00;54.40
36652;DHT22;53334;51.976;20.144;2023-03-25T03:01:19;26.00;54.40
36652;DHT22;53334;51.976;20.144;2023-03-25T03:03:54;26.00;54.40
36652;DHT22;53334;51.976;20.144;2023-03-25T03:06:34;26.00;54.30
36652;DHT22;53334;51.976;20.144;2023-03-25T03:09:23;26.00;54.20
36652;DHT22;53334;51.976;20.144;2023-03-25T03:12:18;26.00;54.20
36652;DHT22;53334;51.976;20.144;2023-03-25T03:15:01;26.00;54.30
36652;DHT22;53334;51.976;20.144;2023-03-25T03:17:43;26.00;54.30
36652;DHT22;53334;51.976;20.144;2023-03-25T03:20:25;26.00;54.30
36652;DHT22;53334;51.976;20.144;2023-03-25T03:23:08;26.00;54.30
36652;DHT22;53334;51.976;20.144;2023-03-25T03:25:47;26.00;54.30
36652;DHT22;53334;51.976;20.144;2023-03-25T03:28:28;26.00;54.30
36652;DHT22;53334;51.976;20.144;2023-03-25T03:31:04;26.00;54.10
36652;DHT22;53334;51.976;20.144;2023-03-25T03:33:43;26.00;54.20
36652;DHT22;53334;51.976;20.144;2023-03-25T03:36:25;26.00;54.30
36652;DHT22;53334;51.976;20.144;2023-03-25T03:39:04;26.00;54.20
36652;DHT22;53334;51.976;20.144;2023-03-25T03:41:42;26.00;54.30
36652;DHT22;53334;51.976;20.144;2023-03-25T03:44:21;26.00;54.30
36652;DHT22;53334;51.976;20.144;2023-03-25T03:46:58;26.00;54.20
36652;DHT22;53334;51.976;20.144;2023-03-25T03:49:36;26.00;54.20
36652;DHT22;53334;51.976;20.144;2023-03-25T03:52:13;26.00;54.20
36652;DHT22;53334;51.976;20.144;2023-03-25T03:54:50;26.00;54.20
36652;DHT22;53334;51.976;20.144;2023-03-25T03:57:29;26.00;54.10
36652;DHT22;53334;51.976;20.144;2023-03-25T04:00:09;26.00;54.20
36652;DHT22;53334;51.976;20.144;2023-03-25T04:02:49;26.00;54.10
36652;DHT22;53334;51.976;20.144;2023-03-25T04:05:23;26.00;54.10
36652;DHT22;53334;51.976;20.144;2023-03-25T04:08:03;26.00;54.00
36652;DHT22;53334;51.976;20.144;2023-03-25T04:10:48;26.00;54.00
36652;DHT22;53334;51.976;20.144;2023-03-25T04:13:29;26.00;53.90
36652;DHT22;53334;51.976;20.144;2023-03-25T04:16:05;26.00;54.00
36652;DHT22;53334;51.976;20.144;2023-03-25T04:18:39;26.00;54.00
36652;DHT22;53334;51.976;20.144;2023-03-25T04:21:14;26.00;54.00
36652;DHT22;53334;51.976;20.144;2023-03-25T04:23:48;26.00;54.00
36652;DHT22;53334;51.976;20.144;2023-03-25T04:26:22;26.00;53.90
36652;DHT22;53334;51.976;20.144;2023-03-25T04:28:56;26.00;54.00
36652;DHT22;53334;51.976;20.144;2023-03-25T04:31:33;26.00;54.00
36652;DHT22;53334;51.976;20.144;2023-03-25T04:34:06;26.00;54.00
36652;DHT22;53334;51.976;20.144;2023-03-25T04:36:39;26.00;53.90
36652;DHT22;53334;51.976;20.144;2023-03-25T04:39:14;26.00;53.90
36652;DHT22;53334;51.976;20.144;2023-03-25T04:41:48;26.00;53.90
36652;DHT22;53334;51.976;20.144;2023-03-25T04:44:22;26.00;53.90
36652;DHT22;53334;51.976;20.144;2023-03-25T04:46:58;26.00;53.90
36652;DHT22;53334;51.976;20.144;2023-03-25T04:49:32;26.00;53.80
36652;DHT22;53334;51.976;20.144;2023-03-25T04:52:06;26.00;53.80
36652;DHT22;53334;51.976;20.144;2023-03-25T04:54:40;26.00;53.80
36652;DHT22;53334;51.976;20.144;2023-03-25T04:57:13;26.00;53.80
36652;DHT22;53334;51.976;20.144;2023-03-25T05:00:12;26.00;53.80
36652;DHT22;53334;51.976;20.144;2023-03-25T05:02:48;26.00;53.70
36652;DHT22;53334;51.976;20.144;2023-03-25T05:05:23;26.00;53.70
36652;DHT22;53334;51.976;20.144;2023-03-25T05:07:57;26.00;53.70
36652;DHT22;53334;51.976;20.144;2023-03-25T05:10:30;26.00;53.70
36652;DHT22;53334;51.976;20.144;2023-03-25T05:13:06;26.00;53.80
36652;DHT22;53334;51.976;20.144;2023-03-25T05:15:40;26.00;53.80
36652;DHT22;53334;51.976;20.144;2023-03-25T05:18:16;26.00;53.70
36652;DHT22;53334;51.976;20.144;2023-03-25T05:20:49;26.00;53.70
36652;DHT22;53334;51.976;20.144;2023-03-25T05:23:24;26.00;53.70
36652;DHT22;53334;51.976;20.144;2023-03-25T05:25:58;26.00;53.80
36652;DHT22;53334;51.976;20.144;2023-03-25T05:28:31;26.00;53.60
36652;DHT22;53334;51.976;20.144;2023-03-25T05:31:05;26.00;53.70
36652;DHT22;53334;51.976;20.144;2023-03-25T05:33:40;26.00;53.70
36652;DHT22;53334;51.976;20.144;2023-03-25T05:36:14;26.00;53.70
36652;DHT22;53334;51.976;20.144;2023-03-25T05:38:49;26.00;53.70
36652;DHT22;53334;51.976;20.144;2023-03-25T05:41:26;26.00;53.80
36652;DHT22;53334;51.976;20.144;2023-03-25T05:44:04;26.00;53.70
36652;DHT22;53334;51.976;20.144;2023-03-25T05:46:37;26.00;53.70
36652;DHT22;53334;51.976;20.144;2023-03-25T05:49:12;26.00;53.90
36652;DHT22;53334;51.976;20.144;2023-03-25T05:51:45;26.00;53.80
36652;DHT22;53334;51.976;20.144;2023-03-25T05:54:20;26.00;53.90
36652;DHT22;53334;51.976;20.144;2023-03-25T05:56:55;26.00;53.80
36652;DHT22;53334;51.976;20.144;2023-03-25T05:59:29;25.90;53.80
36652;DHT22;53334;51.976;20.144;2023-03-25T06:02:02;25.90;53.70
36652;DHT22;53334;51.976;20.144;2023-03-25T06:04:37;25.90;53.80
36652;DHT22;53334;51.976;20.144;2023-03-25T06:07:13;25.90;53.90
36652;DHT22;53334;51.976;20.144;2023-03-25T06:09:51;25.90;53.90
36652;DHT22;53334;51.976;20.144;2023-03-25T06:12:25;26.00;53.90
36652;DHT22;53334;51.976;20.144;2023-03-25T06:14:58;26.00;53.80
36652;DHT22;53334;51.976;20.144;2023-03-25T06:17:32;25.90;53.70
36652;DHT22;53334;51.976;20.144;2023-03-25T06:20:08;25.90;53.70
36652;DHT22;53334;51.976;20.144;2023-03-25T06:22:44;25.90;53.20
36652;DHT22;53334;51.976;20.144;2023-03-25T06:25:19;25.90;53.70
36652;DHT22;53334;51.976;20.144;2023-03-25T06:27:52;25.90;53.50
36652;DHT22;53334;51.976;20.144;2023-03-25T06:30:27;25.90;53.40
36652;DHT22;53334;51.976;20.144;2023-03-25T06:33:00;25.90;53.40
36652;DHT22;53334;51.976;20.144;2023-03-25T06:35:38;25.90;53.40
36652;DHT22;53334;51.976;20.144;2023-03-25T06:38:12;25.90;53.30
36652;DHT22;53334;51.976;20.144;2023-03-25T06:41:06;25.90;53.30
36652;DHT22;53334;51.976;20.144;2023-03-25T06:43:41;26.00;53.20
36652;DHT22;53334;51.976;20.144;2023-03-25T06:46:17;25.90;53.20
36652;DHT22;53334;51.976;20.144;2023-03-25T06:49:09;25.90;53.20
36652;DHT22;53334;51.976;20.144;2023-03-25T06:51:44;25.90;53.20
36652;DHT22;53334;51.976;20.144;2023-03-25T06:54:18;25.90;53.20
36652;DHT22;53334;51.976;20.144;2023-03-25T06:56:51;25.90;53.20
36652;DHT22;53334;51.976;20.144;2023-03-25T06:59:25;25.90;53.30
36652;DHT22;53334;51.976;20.144;2023-03-25T07:01:58;25.90;53.30
36652;DHT22;53334;51.976;20.144;2023-03-25T07:04:32;25.90;53.30
36652;DHT22;53334;51.976;20.144;2023-03-25T07:07:07;25.90;53.30
36652;DHT22;53334;51.976;20.144;2023-03-25T07:09:40;25.90;53.30
36652;DHT22;53334;51.976;20.144;2023-03-25T07:12:14;25.90;53.40
36652;DHT22;53334;51.976;20.144;2023-03-25T07:14:50;26.00;53.50
36652;DHT22;53334;51.976;20.144;2023-03-25T07:17:24;26.00;53.60
36652;DHT22;53334;51.976;20.144;2023-03-25T07:19:57;26.00;53.60
36652;DHT22;53334;51.976;20.144;2023-03-25T07:22:32;26.00;53.60
36652;DHT22;53334;51.976;20.144;2023-03-25T07:25:06;26.00;53.70
36652;DHT22;53334;51.976;20.144;2023-03-25T07:27:40;26.00;53.80
36652;DHT22;53334;51.976;20.144;2023-03-25T07:30:20;26.00;53.90
36652;DHT22;53334;51.976;20.144;2023-03-25T07:32:54;26.00;54.00
36652;DHT22;53334;51.976;20.144;2023-03-25T07:35:27;26.00;54.10
36652;DHT22;53334;51.976;20.144;2023-03-25T07:38:02;26.00;54.20
36652;DHT22;53334;51.976;20.144;2023-03-25T07:40:36;26.00;54.40
36652;DHT22;53334;51.976;20.144;2023-03-25T07:43:09;26.00;54.50
36652;DHT22;53334;51.976;20.144;2023-03-25T07:45:47;26.00;54.20
36652;DHT22;53334;51.976;20.144;2023-03-25T07:48:21;26.00;54.20
36652;DHT22;53334;51.976;20.144;2023-03-25T07:50:54;26.00;54.60
36652;DHT22;53334;51.976;20.144;2023-03-25T07:53:29;26.00;53.90
36652;DHT22;53334;51.976;20.144;2023-03-25T07:56:04;26.00;53.80
36652;DHT22;53334;51.976;20.144;2023-03-25T07:58:38;26.00;53.50
36652;DHT22;53334;51.976;20.144;2023-03-25T08:01:11;26.00;53.70
36652;DHT22;53334;51.976;20.144;2023-03-25T08:03:44;26.00;53.80
36652;DHT22;53334;51.976;20.144;2023-03-25T08:06:18;26.00;53.90
36652;DHT22;53334;51.976;20.144;2023-03-25T08:08:53;26.10;54.30
36652;DHT22;53334;51.976;20.144;2023-03-25T08:11:26;26.10;54.40
36652;DHT22;53334;51.976;20.144;2023-03-25T08:14:00;26.10;54.40
36652;DHT22;53334;51.976;20.144;2023-03-25T08:16:33;26.20;54.40
36652;DHT22;53334;51.976;20.144;2023-03-25T08:19:06;26.20;54.40
36652;DHT22;53334;51.976;20.144;2023-03-25T08:21:40;26.20;54.20
36652;DHT22;53334;51.976;20.144;2023-03-25T08:24:15;26.20;53.90
36652;DHT22;53334;51.976;20.144;2023-03-25T08:26:48;26.20;53.30
36652;DHT22;53334;51.976;20.144;2023-03-25T08:29:21;26.20;53.00
36652;DHT22;53334;51.976;20.144;2023-03-25T08:31:55;26.20;51.70
36652;DHT22;53334;51.976;20.144;2023-03-25T08:34:29;26.20;45.90
36652;DHT22;53334;51.976;20.144;2023-03-25T08:37:05;26.10;42.70
36652;DHT22;53334;51.976;20.144;2023-03-25T08:39:40;26.00;42.10
36652;DHT22;53334;51.976;20.144;2023-03-25T08:42:16;26.00;42.40
36652;DHT22;53334;51.976;20.144;2023-03-25T08:44:50;26.00;42.40
36652;DHT22;53334;51.976;20.144;2023-03-25T08:47:23;25.90;42.50
36652;DHT22;53334;51.976;20.144;2023-03-25T08:49:57;25.90;42.60
36652;DHT22;53334;51.976;20.144;2023-03-25T08:52:30;25.90;42.70
36652;DHT22;53334;51.976;20.144;2023-03-25T08:55:05;25.90;42.60
36652;DHT22;53334;51.976;20.144;2023-03-25T08:57:43;25.90;42.50
36652;DHT22;53334;51.976;20.144;2023-03-25T09:00:17;25.90;43.10
36652;DHT22;53334;51.976;20.144;2023-03-25T09:02:55;25.90;42.90
36652;DHT22;53334;51.976;20.144;2023-03-25T09:05:35;25.90;42.90
36652;DHT22;53334;51.976;20.144;2023-03-25T09:08:09;25.90;43.10
36652;DHT22;53334;51.976;20.144;2023-03-25T09:10:43;26.00;43.80
36652;DHT22;53334;51.976;20.144;2023-03-25T09:13:17;26.00;44.80
36652;DHT22;53334;51.976;20.144;2023-03-25T09:15:50;26.10;44.90
36652;DHT22;53334;51.976;20.144;2023-03-25T09:18:24;26.10;42.10
36652;DHT22;53334;51.976;20.144;2023-03-25T09:20:58;26.10;40.20
36652;DHT22;53334;51.976;20.144;2023-03-25T09:23:31;26.10;40.30
36652;DHT22;53334;51.976;20.144;2023-03-25T09:26:06;26.10;39.30
36652;DHT22;53334;51.976;20.144;2023-03-25T09:28:40;26.10;39.40
36652;DHT22;53334;51.976;20.144;2023-03-25T09:31:13;26.10;40.00
36652;DHT22;53334;51.976;20.144;2023-03-25T09:33:46;26.20;41.30
36652;DHT22;53334;51.976;20.144;2023-03-25T09:36:20;26.20;41.30
36652;DHT22;53334;51.976;20.144;2023-03-25T09:38:53;26.20;42.30
36652;DHT22;53334;51.976;20.144;2023-03-25T09:41:41;26.30;42.40
36652;DHT22;53334;51.976;20.144;2023-03-25T09:44:21;26.30;42.70
36652;DHT22;53334;51.976;20.144;2023-03-25T09:46:58;26.40;42.80
36652;DHT22;53334;51.976;20.144;2023-03-25T09:49:37;26.40;42.90
36652;DHT22;53334;51.976;20.144;2023-03-25T09:52:15;26.40;42.90
36652;DHT22;53334;51.976;20.144;2023-03-25T09:54:52;26.40;43.10
36652;DHT22;53334;51.976;20.144;2023-03-25T09:57:30;26.40;43.20
36652;DHT22;53334;51.976;20.144;2023-03-25T10:00:05;26.50;43.20
36652;DHT22;53334;51.976;20.144;2023-03-25T10:02:43;26.50;43.40
36652;DHT22;53334;51.976;20.144;2023-03-25T10:05:34;26.50;43.70
36652;DHT22;53334;51.976;20.144;2023-03-25T10:08:17;26.50;43.90
36652;DHT22;53334;51.976;20.144;2023-03-25T10:11:03;26.50;44.10
36652;DHT22;53334;51.976;20.144;2023-03-25T10:13:45;26.50;44.60
36652;DHT22;53334;51.976;20.144;2023-03-25T10:16:25;26.50;44.90
36652;DHT22;53334;51.976;20.144;2023-03-25T10:19:08;26.50;44.90
36652;DHT22;53334;51.976;20.144;2023-03-25T10:21:54;26.50;44.80
36652;DHT22;53334;51.976;20.144;2023-03-25T10:24:33;26.50;44.90
36652;DHT22;53334;51.976;20.144;2023-03-25T10:27:14;26.50;44.90
36652;DHT22;53334;51.976;20.144;2023-03-25T10:29:53;26.50;44.80
36652;DHT22;53334;51.976;20.144;2023-03-25T10:32:38;26.50;44.80
36652;DHT22;53334;51.976;20.144;2023-03-25T12:03:17;26.80;52.10
36652;DHT22;53334;51.976;20.144;2023-03-25T12:06:02;26.80;52.90
36652;DHT22;53334;51.976;20.144;2023-03-25T12:08:43;26.80;52.50
36652;DHT22;53334;51.976;20.144;2023-03-25T12:11:25;26.80;53.00
36652;DHT22;53334;51.976;20.144;2023-03-25T12:14:20;26.80;53.00
36652;DHT22;53334;51.976;20.144;2023-03-25T12:16:59;26.80;52.70
36652;DHT22;53334;51.976;20.144;2023-03-25T12:19:45;26.80;52.40
36652;DHT22;53334;51.976;20.144;2023-03-25T12:22:30;26.80;52.60
36652;DHT22;53334;51.976;20.144;2023-03-25T12:25:16;26.80;52.50
36652;DHT22;53334;51.976;20.144;2023-03-25T12:28:01;26.90;52.90
36652;DHT22;53334;51.976;20.144;2023-03-25T12:30:51;26.90;53.10
36652;DHT22;53334;51.976;20.144;2023-03-25T12:33:44;26.80;52.20
36652;DHT22;53334;51.976;20.144;2023-03-25T12:36:33;26.90;52.00
36652;DHT22;53334;51.976;20.144;2023-03-25T12:39:27;26.90;51.40
36652;DHT22;53334;51.976;20.144;2023-03-25T12:42:18;26.90;50.30
36652;DHT22;53334;51.976;20.144;2023-03-25T12:45:05;26.90;48.70
36652;DHT22;53334;51.976;20.144;2023-03-25T12:47:52;26.90;47.70
36652;DHT22;53334;51.976;20.144;2023-03-25T12:50:46;26.90;47.20
36652;DHT22;53334;51.976;20.144;2023-03-25T12:53:41;26.90;46.50
36652;DHT22;53334;51.976;20.144;2023-03-25T13:02:33;26.90;45.70
36652;DHT22;53334;51.976;20.144;2023-03-25T13:05:16;26.90;45.20
36652;DHT22;53334;51.976;20.144;2023-03-25T13:07:53;26.90;45.10
36652;DHT22;53334;51.976;20.144;2023-03-25T13:10:32;26.90;45.00
36652;DHT22;53334;51.976;20.144;2023-03-25T13:13:11;26.80;44.80
36652;DHT22;53334;51.976;20.144;2023-03-25T13:15:47;26.90;44.70
36652;DHT22;53334;51.976;20.144;2023-03-25T13:18:26;26.90;44.50
36652;DHT22;53334;51.976;20.144;2023-03-25T13:21:05;26.80;44.40
36652;DHT22;53334;51.976;20.144;2023-03-25T13:23:49;26.90;44.50
36652;DHT22;53334;51.976;20.144;2023-03-25T13:26:28;26.90;44.30
36652;DHT22;53334;51.976;20.144;2023-03-25T13:29:05;26.80;44.00
36652;DHT22;53334;51.976;20.144;2023-03-25T13:31:41;26.80;43.70
36652;DHT22;53334;51.976;20.144;2023-03-25T13:34:21;26.80;43.60
36652;DHT22;53334;51.976;20.144;2023-03-25T13:37:04;26.80;43.60
36652;DHT22;53334;51.976;20.144;2023-03-25T13:40:02;26.80;43.30
36652;DHT22;53334;51.976;20.144;2023-03-25T13:42:48;26.80;43.50
36652;DHT22;53334;51.976;20.144;2023-03-25T13:45:28;26.80;43.80
36652;DHT22;53334;51.976;20.144;2023-03-25T13:48:09;26.80;43.70
36652;DHT22;53334;51.976;20.144;2023-03-25T13:50:45;26.70;43.50
36652;DHT22;53334;51.976;20.144;2023-03-25T13:53:23;26.70;44.00
36652;DHT22;53334;51.976;20.144;2023-03-25T13:56:27;26.70;44.00
36652;DHT22;53334;51.976;20.144;2023-03-25T13:59:18;26.70;44.10
36652;DHT22;53334;51.976;20.144;2023-03-25T14:02:33;26.60;43.60
36652;DHT22;53334;51.976;20.144;2023-03-25T14:05:40;26.70;43.90
36652;DHT22;53334;51.976;20.144;2023-03-25T14:08:34;26.70;44.20
36652;DHT22;53334;51.976;20.144;2023-03-25T14:11:19;26.70;44.70
36652;DHT22;53334;51.976;20.144;2023-03-25T14:13:55;26.60;44.70
36652;DHT22;53334;51.976;20.144;2023-03-25T14:16:41;26.60;44.70
36652;DHT22;53334;51.976;20.144;2023-03-25T14:19:20;26.60;45.20
36652;DHT22;53334;51.976;20.144;2023-03-25T14:21:55;26.60;44.80
36652;DHT22;53334;51.976;20.144;2023-03-25T14:24:30;26.60;45.50
36652;DHT22;53334;51.976;20.144;2023-03-25T14:27:05;26.60;45.50
36652;DHT22;53334;51.976;20.144;2023-03-25T14:29:41;26.60;44.80
36652;DHT22;53334;51.976;20.144;2023-03-25T14:32:32;26.60;44.70
36652;DHT22;53334;51.976;20.144;2023-03-25T14:35:44;26.60;45.20
36652;DHT22;53334;51.976;20.144;2023-03-25T14:41:58;26.60;45.20
36652;DHT22;53334;51.976;20.144;2023-03-25T14:44:33;26.60;45.60
36652;DHT22;53334;51.976;20.144;2023-03-25T14:47:30;26.60;45.30
36652;DHT22;53334;51.976;20.144;2023-03-25T14:50:29;26.60;45.50
36652;DHT22;53334;51.976;20.144;2023-03-25T14:53:06;26.60;45.20
36652;DHT22;53334;51.976;20.144;2023-03-25T14:55:44;26.60;45.10
36652;DHT22;53334;51.976;20.144;2023-03-25T14:58:22;26.60;45.30
36652;DHT22;53334;51.976;20.144;2023-03-25T15:01:01;26.60;45.40
36652;DHT22;53334;51.976;20.144;2023-03-25T15:03:38;26.60;45.50
36652;DHT22;53334;51.976;20.144;2023-03-25T15:06:17;26.60;45.50
36652;DHT22;53334;51.976;20.144;2023-03-25T15:08:53;26.60;45.50
36652;DHT22;53334;51.976;20.144;2023-03-25T15:11:32;26.60;45.60
36652;DHT22;53334;51.976;20.144;2023-03-25T15:14:09;26.60;45.70
36652;DHT22;53334;51.976;20.144;2023-03-25T15:17:00;26.60;45.70
36652;DHT22;53334;51.976;20.144;2023-03-25T15:20:25;26.60;45.70
36652;DHT22;53334;51.976;20.144;2023-03-25T15:23:34;26.60;45.70
36652;DHT22;53334;51.976;20.144;2023-03-25T15:26:12;26.60;45.90
36652;DHT22;53334;51.976;20.144;2023-03-25T15:29:05;26.50;45.30
36652;DHT22;53334;51.976;20.144;2023-03-25T15:31:51;26.50;45.70
36652;DHT22;53334;51.976;20.144;2023-03-25T15:34:36;26.50;45.70
36652;DHT22;53334;51.976;20.144;2023-03-25T15:37:38;26.50;45.80
36652;DHT22;53334;51.976;20.144;2023-03-25T15:40:27;26.50;45.80
36652;DHT22;53334;51.976;20.144;2023-03-25T15:43:29;26.50;45.80
36652;DHT22;53334;51.976;20.144;2023-03-25T15:46:24;26.50;45.80
36652;DHT22;53334;51.976;20.144;2023-03-25T15:52:13;26.50;46.00
36652;DHT22;53334;51.976;20.144;2023-03-25T15:54:54;26.50;45.90
36652;DHT22;53334;51.976;20.144;2023-03-25T15:57:29;26.50;45.80
36652;DHT22;53334;51.976;20.144;2023-03-25T16:00:11;26.50;45.80
36652;DHT22;53334;51.976;20.144;2023-03-25T16:02:49;26.50;45.80
36652;DHT22;53334;51.976;20.144;2023-03-25T16:05:27;26.50;45.60
36652;DHT22;53334;51.976;20.144;2023-03-25T16:08:07;26.40;45.50
36652;DHT22;53334;51.976;20.144;2023-03-25T16:10:43;26.40;45.90
36652;DHT22;53334;51.976;20.144;2023-03-25T16:13:17;26.40;45.80
36652;DHT22;53334;51.976;20.144;2023-03-25T16:15:56;26.50;45.80
36652;DHT22;53334;51.976;20.144;2023-03-25T16:18:30;26.40;45.80
36652;DHT22;53334;51.976;20.144;2023-03-25T16:21:05;26.40;46.00
36652;DHT22;53334;51.976;20.144;2023-03-25T16:23:39;26.40;46.70
36652;DHT22;53334;51.976;20.144;2023-03-25T16:26:14;26.40;46.50
36652;DHT22;53334;51.976;20.144;2023-03-25T16:28:49;26.40;46.80
36652;DHT22;53334;51.976;20.144;2023-03-25T16:31:29;26.40;46.90
36652;DHT22;53334;51.976;20.144;2023-03-25T16:34:09;26.40;47.30
36652;DHT22;53334;51.976;20.144;2023-03-25T16:36:45;26.50;47.40
36652;DHT22;53334;51.976;20.144;2023-03-25T16:39:21;26.50;47.50
36652;DHT22;53334;51.976;20.144;2023-03-25T16:42:02;26.50;47.60
36652;DHT22;53334;51.976;20.144;2023-03-25T16:44:37;26.50;47.60
36652;DHT22;53334;51.976;20.144;2023-03-25T16:47:11;26.60;47.40
36652;DHT22;53334;51.976;20.144;2023-03-25T16:49:46;26.50;47.30
36652;DHT22;53334;51.976;20.144;2023-03-25T16:52:24;26.50;47.30
36652;DHT22;53334;51.976;20.144;2023-03-25T16:55:26;26.50;47.40
36652;DHT22;53334;51.976;20.144;2023-03-25T16:58:01;26.60;47.40
36652;DHT22;53334;51.976;20.144;2023-03-25T17:00:40;26.50;47.30
36652;DHT22;53334;51.976;20.144;2023-03-25T17:03:16;26.50;47.40
36652;DHT22;53334;51.976;20.144;2023-03-25T17:05:56;26.60;47.40
36652;DHT22;53334;51.976;20.144;2023-03-25T17:08:32;26.60;47.40
36652;DHT22;53334;51.976;20.144;2023-03-25T17:11:07;26.60;47.40
36652;DHT22;53334;51.976;20.144;2023-03-25T17:13:45;26.60;47.40
36652;DHT22;53334;51.976;20.144;2023-03-25T17:16:22;26.60;47.30
36652;DHT22;53334;51.976;20.144;2023-03-25T17:18:55;26.60;47.20
36652;DHT22;53334;51.976;20.144;2023-03-25T17:21:30;26.60;47.20
36652;DHT22;53334;51.976;20.144;2023-03-25T17:24:20;26.60;47.30
36652;DHT22;53334;51.976;20.144;2023-03-25T17:26:56;26.60;47.40
36652;DHT22;53334;51.976;20.144;2023-03-25T17:29:48;26.60;47.40
36652;DHT22;53334;51.976;20.144;2023-03-25T17:32:21;26.60;47.70
36652;DHT22;53334;51.976;20.144;2023-03-25T17:34:56;26.60;47.70
36652;DHT22;53334;51.976;20.144;2023-03-25T17:37:30;26.60;47.80
36652;DHT22;53334;51.976;20.144;2023-03-25T17:40:05;26.60;47.80
36652;DHT22;53334;51.976;20.144;2023-03-25T17:42:42;26.60;47.80
36652;DHT22;53334;51.976;20.144;2023-03-25T17:45:18;26.60;47.80
36652;DHT22;53334;51.976;20.144;2023-03-25T17:47:53;26.60;47.80
36652;DHT22;53334;51.976;20.144;2023-03-25T17:50:27;26.60;47.80
36652;DHT22;53334;51.976;20.144;2023-03-25T17:53:04;26.60;47.90
36652;DHT22;53334;51.976;20.144;2023-03-25T17:55:37;26.60;48.90
36652;DHT22;53334;51.976;20.144;2023-03-25T17:58:11;26.60;49.00
36652;DHT22;53334;51.976;20.144;2023-03-25T18:00:46;26.60;49.00
36652;DHT22;53334;51.976;20.144;2023-03-25T18:03:22;26.60;49.20
36652;DHT22;53334;51.976;20.144;2023-03-25T18:05:58;26.60;49.40
36652;DHT22;53334;51.976;20.144;2023-03-25T18:08:32;26.60;49.50